sensor_id;sensor_type;location;lat;lon;timestamp;P1;durP1;ratioP1;P2;durP2;ratioP2
43146;SDS011;28752;48.266;7.402;2022-07-29T00:00:57;4.75;;;2.67;;
43146;SDS011;28752;48.266;7.402;2022-07-29T00:03:22;5.00;;;2.58;;
43146;SDS011;28752;48.266;7.402;2022-07-29T00:05:48;4.67;;;2.57;;
43146;SDS011;28752;48.266;7.402;2022-07-29T00:08:13;4.38;;;2.42;;
43146;SDS011;28752;48.266;7.402;2022-07-29T00:10:40;4.00;;;2.47;;
43146;SDS011;28752;48.266;7.402;2022-07-29T00:15:32;4.70;;;2.70;;
43146;SDS011;28752;48.266;7.402;2022-07-29T00:17:58;5.00;;;2.50;;
43146;SDS011;28752;48.266;7.402;2022-07-29T00:20:23;5.68;;;2.50;;
43146;SDS011;28752;48.266;7.402;2022-07-29T00:22:48;4.03;;;2.70;;
43146;SDS011;28752;48.266;7.402;2022-07-29T00:25:14;4.50;;;2.70;;
43146;SDS011;28752;48.266;7.402;2022-07-29T00:27:39;4.60;;;2.57;;
43146;SDS011;28752;48.266;7.402;2022-07-29T00:30:05;3.85;;;2.28;;
43146;SDS011;28752;48.266;7.402;2022-07-29T00:32:31;5.22;;;2.75;;
43146;SDS011;28752;48.266;7.402;2022-07-29T00:34:57;4.25;;;2.70;;
43146;SDS011;28752;48.266;7.402;2022-07-29T00:37:41;4.32;;;2.28;;
43146;SDS011;28752;48.266;7.402;2022-07-29T00:40:07;4.10;;;2.40;;
43146;SDS011;28752;48.266;7.402;2022-07-29T00:42:46;5.20;;;3.13;;
43146;SDS011;28752;48.266;7.402;2022-07-29T00:45:13;4.00;;;2.60;;
43146;SDS011;28752;48.266;7.402;2022-07-29T00:47:39;4.03;;;2.25;;
43146;SDS011;28752;48.266;7.402;2022-07-29T00:50:05;3.33;;;2.15;;
43146;SDS011;28752;48.266;7.402;2022-07-29T00:52:32;4.60;;;2.88;;
43146;SDS011;28752;48.266;7.402;2022-07-29T00:54:58;5.40;;;2.67;;
43146;SDS011;28752;48.266;7.402;2022-07-29T00:57:24;4.85;;;2.53;;
43146;SDS011;28752;48.266;7.402;2022-07-29T00:59:49;4.85;;;2.95;;
43146;SDS011;28752;48.266;7.402;2022-07-29T01:02:15;5.13;;;2.90;;
43146;SDS011;28752;48.266;7.402;2022-07-29T01:04:40;4.57;;;2.70;;
43146;SDS011;28752;48.266;7.402;2022-07-29T01:07:06;5.80;;;3.00;;
43146;SDS011;28752;48.266;7.402;2022-07-29T01:09:32;4.57;;;2.70;;
43146;SDS011;28752;48.266;7.402;2022-07-29T01:12:01;4.75;;;2.92;;
43146;SDS011;28752;48.266;7.402;2022-07-29T01:14:28;4.80;;;2.80;;
43146;SDS011;28752;48.266;7.402;2022-07-29T01:22:26;4.72;;;2.80;;
43146;SDS011;28752;48.266;7.402;2022-07-29T01:28:08;4.30;;;2.75;;
43146;SDS011;28752;48.266;7.402;2022-07-29T01:30:53;5.78;;;3.13;;
43146;SDS011;28752;48.266;7.402;2022-07-29T01:33:19;4.30;;;2.80;;
43146;SDS011;28752;48.266;7.402;2022-07-29T01:36:10;4.95;;;2.92;;
43146;SDS011;28752;48.266;7.402;2022-07-29T01:38:42;5.47;;;3.10;;
43146;SDS011;28752;48.266;7.402;2022-07-29T01:41:11;5.40;;;3.13;;
43146;SDS011;28752;48.266;7.402;2022-07-29T01:43:49;5.20;;;3.20;;
43146;SDS011;28752;48.266;7.402;2022-07-29T01:46:22;7.50;;;3.83;;
43146;SDS011;28752;48.266;7.402;2022-07-29T01:49:06;5.45;;;3.53;;
43146;SDS011;28752;48.266;7.402;2022-07-29T01:51:40;6.82;;;3.47;;
43146;SDS011;28752;48.266;7.402;2022-07-29T01:54:21;5.55;;;3.15;;
43146;SDS011;28752;48.266;7.402;2022-07-29T01:56:55;5.18;;;3.20;;
43146;SDS011;28752;48.266;7.402;2022-07-29T01:59:23;5.40;;;2.80;;
43146;SDS011;28752;48.266;7.402;2022-07-29T02:01:50;4.80;;;3.03;;
43146;SDS011;28752;48.266;7.402;2022-07-29T02:04:18;7.00;;;3.55;;
43146;SDS011;28752;48.266;7.402;2022-07-29T02:06:45;6.13;;;3.83;;
43146;SDS011;28752;48.266;7.402;2022-07-29T02:09:15;5.43;;;3.15;;
43146;SDS011;28752;48.266;7.402;2022-07-29T02:11:47;7.55;;;3.47;;
43146;SDS011;28752;48.266;7.402;2022-07-29T02:14:17;5.32;;;3.40;;
43146;SDS011;28752;48.266;7.402;2022-07-29T02:16:43;6.65;;;3.55;;
43146;SDS011;28752;48.266;7.402;2022-07-29T02:19:11;5.70;;;3.60;;
43146;SDS011;28752;48.266;7.402;2022-07-29T02:21:38;5.15;;;3.20;;
43146;SDS011;28752;48.266;7.402;2022-07-29T02:24:05;5.32;;;3.65;;
43146;SDS011;28752;48.266;7.402;2022-07-29T02:26:32;9.50;;;3.53;;
43146;SDS011;28752;48.266;7.402;2022-07-29T02:28:59;6.53;;;3.83;;
43146;SDS011;28752;48.266;7.402;2022-07-29T02:31:32;5.60;;;3.30;;
43146;SDS011;28752;48.266;7.402;2022-07-29T02:33:59;4.95;;;2.95;;
43146;SDS011;28752;48.266;7.402;2022-07-29T02:36:27;7.88;;;4.35;;
43146;SDS011;28752;48.266;7.402;2022-07-29T02:38:54;6.40;;;3.63;;
43146;SDS011;28752;48.266;7.402;2022-07-29T02:41:23;5.85;;;3.60;;
43146;SDS011;28752;48.266;7.402;2022-07-29T02:43:56;5.20;;;3.13;;
43146;SDS011;28752;48.266;7.402;2022-07-29T02:46:34;6.22;;;3.45;;
43146;SDS011;28752;48.266;7.402;2022-07-29T02:49:04;5.95;;;3.78;;
43146;SDS011;28752;48.266;7.402;2022-07-29T02:51:45;6.43;;;3.80;;
43146;SDS011;28752;48.266;7.402;2022-07-29T02:54:26;7.05;;;4.15;;
43146;SDS011;28752;48.266;7.402;2022-07-29T02:56:53;6.35;;;3.90;;
43146;SDS011;28752;48.266;7.402;2022-07-29T02:59:22;5.60;;;3.58;;
43146;SDS011;28752;48.266;7.402;2022-07-29T03:01:51;6.50;;;3.45;;
43146;SDS011;28752;48.266;7.402;2022-07-29T03:04:19;5.53;;;3.22;;
43146;SDS011;28752;48.266;7.402;2022-07-29T03:06:47;5.80;;;3.58;;
43146;SDS011;28752;48.266;7.402;2022-07-29T03:09:14;5.70;;;3.15;;
43146;SDS011;28752;48.266;7.402;2022-07-29T03:14:07;5.40;;;3.35;;
43146;SDS011;28752;48.266;7.402;2022-07-29T03:16:33;6.10;;;3.45;;
43146;SDS011;28752;48.266;7.402;2022-07-29T03:19:01;6.85;;;3.92;;
43146;SDS011;28752;48.266;7.402;2022-07-29T03:21:28;5.47;;;3.88;;
43146;SDS011;28752;48.266;7.402;2022-07-29T03:23:53;7.60;;;3.72;;
43146;SDS011;28752;48.266;7.402;2022-07-29T03:26:19;5.80;;;3.53;;
43146;SDS011;28752;48.266;7.402;2022-07-29T03:28:44;6.40;;;2.97;;
43146;SDS011;28752;48.266;7.402;2022-07-29T03:31:10;5.13;;;3.30;;
43146;SDS011;28752;48.266;7.402;2022-07-29T03:33:35;5.03;;;3.37;;
43146;SDS011;28752;48.266;7.402;2022-07-29T03:36:00;5.90;;;3.47;;
43146;SDS011;28752;48.266;7.402;2022-07-29T03:38:27;5.35;;;3.60;;
43146;SDS011;28752;48.266;7.402;2022-07-29T03:40:58;5.00;;;3.17;;
43146;SDS011;28752;48.266;7.402;2022-07-29T03:43:29;6.22;;;3.78;;
43146;SDS011;28752;48.266;7.402;2022-07-29T03:45:59;8.10;;;3.20;;
43146;SDS011;28752;48.266;7.402;2022-07-29T03:50:51;5.82;;;3.40;;
43146;SDS011;28752;48.266;7.402;2022-07-29T03:53:17;5.65;;;2.90;;
43146;SDS011;28752;48.266;7.402;2022-07-29T03:55:44;5.18;;;2.80;;
43146;SDS011;28752;48.266;7.402;2022-07-29T03:58:13;5.38;;;2.78;;
43146;SDS011;28752;48.266;7.402;2022-07-29T04:00:40;4.97;;;2.90;;
43146;SDS011;28752;48.266;7.402;2022-07-29T04:03:07;6.88;;;2.65;;
43146;SDS011;28752;48.266;7.402;2022-07-29T04:05:34;5.65;;;2.85;;
43146;SDS011;28752;48.266;7.402;2022-07-29T04:07:59;6.47;;;3.22;;
43146;SDS011;28752;48.266;7.402;2022-07-29T04:10:25;3.27;;;1.77;;
43146;SDS011;28752;48.266;7.402;2022-07-29T04:12:50;4.23;;;2.40;;
43146;SDS011;28752;48.266;7.402;2022-07-29T04:15:16;4.55;;;2.08;;
43146;SDS011;28752;48.266;7.402;2022-07-29T04:17:41;4.28;;;2.33;;
43146;SDS011;28752;48.266;7.402;2022-07-29T04:20:08;3.25;;;1.90;;
43146;SDS011;28752;48.266;7.402;2022-07-29T04:22:33;4.05;;;1.90;;
43146;SDS011;28752;48.266;7.402;2022-07-29T04:24:59;5.10;;;2.17;;
43146;SDS011;28752;48.266;7.402;2022-07-29T04:27:24;4.50;;;2.40;;
43146;SDS011;28752;48.266;7.402;2022-07-29T04:29:50;4.25;;;2.58;;
43146;SDS011;28752;48.266;7.402;2022-07-29T04:32:15;6.13;;;3.00;;
43146;SDS011;28752;48.266;7.402;2022-07-29T04:34:40;5.17;;;2.57;;
43146;SDS011;28752;48.266;7.402;2022-07-29T04:37:06;7.57;;;3.10;;
43146;SDS011;28752;48.266;7.402;2022-07-29T04:39:31;4.70;;;2.40;;
43146;SDS011;28752;48.266;7.402;2022-07-29T04:41:57;3.83;;;2.30;;
43146;SDS011;28752;48.266;7.402;2022-07-29T04:44:22;5.67;;;2.97;;
43146;SDS011;28752;48.266;7.402;2022-07-29T04:46:47;5.57;;;2.97;;
43146;SDS011;28752;48.266;7.402;2022-07-29T04:49:13;7.57;;;3.10;;
43146;SDS011;28752;48.266;7.402;2022-07-29T04:51:38;6.10;;;3.43;;
43146;SDS011;28752;48.266;7.402;2022-07-29T04:54:04;6.03;;;3.40;;
43146;SDS011;28752;48.266;7.402;2022-07-29T04:56:29;6.57;;;2.87;;
43146;SDS011;28752;48.266;7.402;2022-07-29T04:58:54;4.27;;;2.93;;
43146;SDS011;28752;48.266;7.402;2022-07-29T05:01:20;4.60;;;3.23;;
43146;SDS011;28752;48.266;7.402;2022-07-29T05:03:45;3.97;;;2.30;;
43146;SDS011;28752;48.266;7.402;2022-07-29T05:06:11;5.10;;;2.90;;
43146;SDS011;28752;48.266;7.402;2022-07-29T05:08:36;6.07;;;3.13;;
43146;SDS011;28752;48.266;7.402;2022-07-29T05:11:02;6.00;;;3.45;;
43146;SDS011;28752;48.266;7.402;2022-07-29T05:13:28;6.07;;;3.10;;
43146;SDS011;28752;48.266;7.402;2022-07-29T05:15:54;4.50;;;3.08;;
43146;SDS011;28752;48.266;7.402;2022-07-29T05:18:20;6.03;;;3.22;;
43146;SDS011;28752;48.266;7.402;2022-07-29T05:20:45;7.50;;;3.22;;
43146;SDS011;28752;48.266;7.402;2022-07-29T05:23:10;5.60;;;3.53;;
43146;SDS011;28752;48.266;7.402;2022-07-29T05:25:38;5.80;;;3.47;;
43146;SDS011;28752;48.266;7.402;2022-07-29T05:28:03;5.80;;;3.30;;
43146;SDS011;28752;48.266;7.402;2022-07-29T05:30:29;6.25;;;3.78;;
43146;SDS011;28752;48.266;7.402;2022-07-29T05:32:54;5.80;;;3.37;;
43146;SDS011;28752;48.266;7.402;2022-07-29T05:35:19;6.03;;;3.17;;
43146;SDS011;28752;48.266;7.402;2022-07-29T05:37:45;6.13;;;3.20;;
43146;SDS011;28752;48.266;7.402;2022-07-29T05:40:10;5.97;;;3.63;;
43146;SDS011;28752;48.266;7.402;2022-07-29T05:42:36;6.97;;;3.72;;
43146;SDS011;28752;48.266;7.402;2022-07-29T05:45:02;6.53;;;3.47;;
43146;SDS011;28752;48.266;7.402;2022-07-29T05:49:53;6.78;;;3.63;;
43146;SDS011;28752;48.266;7.402;2022-07-29T05:52:19;5.93;;;3.08;;
43146;SDS011;28752;48.266;7.402;2022-07-29T05:54:44;6.35;;;3.45;;
43146;SDS011;28752;48.266;7.402;2022-07-29T05:57:16;7.10;;;3.42;;
43146;SDS011;28752;48.266;7.402;2022-07-29T05:59:46;5.50;;;3.38;;
43146;SDS011;28752;48.266;7.402;2022-07-29T06:02:12;6.20;;;3.88;;
43146;SDS011;28752;48.266;7.402;2022-07-29T06:04:37;6.10;;;4.17;;
43146;SDS011;28752;48.266;7.402;2022-07-29T06:07:03;6.40;;;4.53;;
43146;SDS011;28752;48.266;7.402;2022-07-29T06:09:28;6.57;;;3.90;;
43146;SDS011;28752;48.266;7.402;2022-07-29T06:11:54;5.63;;;3.17;;
43146;SDS011;28752;48.266;7.402;2022-07-29T06:14:19;5.05;;;3.15;;
43146;SDS011;28752;48.266;7.402;2022-07-29T06:16:45;5.00;;;2.67;;
43146;SDS011;28752;48.266;7.402;2022-07-29T06:19:11;4.50;;;2.60;;
43146;SDS011;28752;48.266;7.402;2022-07-29T06:24:06;8.38;;;2.80;;
43146;SDS011;28752;48.266;7.402;2022-07-29T06:28:57;3.83;;;2.35;;
43146;SDS011;28752;48.266;7.402;2022-07-29T06:33:47;4.40;;;2.50;;
43146;SDS011;28752;48.266;7.402;2022-07-29T06:38:38;4.10;;;2.63;;
43146;SDS011;28752;48.266;7.402;2022-07-29T06:43:37;5.20;;;2.50;;
43146;SDS011;28752;48.266;7.402;2022-07-29T06:46:04;5.10;;;2.75;;
43146;SDS011;28752;48.266;7.402;2022-07-29T06:48:31;4.10;;;2.38;;
43146;SDS011;28752;48.266;7.402;2022-07-29T06:50:58;4.72;;;2.53;;
43146;SDS011;28752;48.266;7.402;2022-07-29T06:53:24;3.80;;;1.98;;
43146;SDS011;28752;48.266;7.402;2022-07-29T06:55:50;3.83;;;2.30;;
43146;SDS011;28752;48.266;7.402;2022-07-29T06:58:16;6.97;;;2.85;;
43146;SDS011;28752;48.266;7.402;2022-07-29T07:00:43;3.85;;;2.17;;
43146;SDS011;28752;48.266;7.402;2022-07-29T07:03:10;5.18;;;2.10;;
43146;SDS011;28752;48.266;7.402;2022-07-29T07:05:35;4.00;;;1.98;;
43146;SDS011;28752;48.266;7.402;2022-07-29T07:08:01;4.22;;;1.70;;
43146;SDS011;28752;48.266;7.402;2022-07-29T07:10:26;3.25;;;1.80;;
43146;SDS011;28752;48.266;7.402;2022-07-29T07:12:52;3.65;;;1.98;;
43146;SDS011;28752;48.266;7.402;2022-07-29T07:15:17;3.33;;;1.65;;
43146;SDS011;28752;48.266;7.402;2022-07-29T07:17:47;4.22;;;2.15;;
43146;SDS011;28752;48.266;7.402;2022-07-29T07:20:13;3.53;;;1.90;;
43146;SDS011;28752;48.266;7.402;2022-07-29T07:22:39;3.47;;;1.98;;
43146;SDS011;28752;48.266;7.402;2022-07-29T07:25:04;4.85;;;1.80;;
43146;SDS011;28752;48.266;7.402;2022-07-29T07:27:30;3.38;;;2.00;;
43146;SDS011;28752;48.266;7.402;2022-07-29T07:29:55;3.25;;;1.80;;
43146;SDS011;28752;48.266;7.402;2022-07-29T07:32:21;3.58;;;2.35;;
43146;SDS011;28752;48.266;7.402;2022-07-29T07:34:46;4.97;;;2.35;;
43146;SDS011;28752;48.266;7.402;2022-07-29T07:37:12;4.38;;;2.00;;
43146;SDS011;28752;48.266;7.402;2022-07-29T07:39:39;4.10;;;2.10;;
43146;SDS011;28752;48.266;7.402;2022-07-29T07:42:04;4.90;;;2.40;;
43146;SDS011;28752;48.266;7.402;2022-07-29T07:44:30;3.35;;;1.90;;
43146;SDS011;28752;48.266;7.402;2022-07-29T07:46:55;3.78;;;2.20;;
43146;SDS011;28752;48.266;7.402;2022-07-29T07:49:21;4.13;;;2.10;;
43146;SDS011;28752;48.266;7.402;2022-07-29T07:51:46;4.30;;;2.10;;
43146;SDS011;28752;48.266;7.402;2022-07-29T07:54:11;4.03;;;1.92;;
43146;SDS011;28752;48.266;7.402;2022-07-29T07:56:37;4.13;;;1.70;;
43146;SDS011;28752;48.266;7.402;2022-07-29T07:59:02;4.75;;;2.00;;
43146;SDS011;28752;48.266;7.402;2022-07-29T08:01:28;3.28;;;2.08;;
43146;SDS011;28752;48.266;7.402;2022-07-29T08:03:53;3.72;;;2.10;;
43146;SDS011;28752;48.266;7.402;2022-07-29T08:06:18;3.10;;;1.90;;
43146;SDS011;28752;48.266;7.402;2022-07-29T08:08:44;4.40;;;2.22;;
43146;SDS011;28752;48.266;7.402;2022-07-29T08:11:09;7.57;;;2.42;;
43146;SDS011;28752;48.266;7.402;2022-07-29T08:13:35;4.13;;;2.13;;
43146;SDS011;28752;48.266;7.402;2022-07-29T08:16:01;3.92;;;2.38;;
43146;SDS011;28752;48.266;7.402;2022-07-29T08:18:36;4.43;;;2.20;;
43146;SDS011;28752;48.266;7.402;2022-07-29T08:21:02;3.95;;;2.17;;
43146;SDS011;28752;48.266;7.402;2022-07-29T08:23:28;5.93;;;2.38;;
43146;SDS011;28752;48.266;7.402;2022-07-29T08:26:00;3.08;;;1.92;;
43146;SDS011;28752;48.266;7.402;2022-07-29T08:28:26;3.75;;;2.08;;
43146;SDS011;28752;48.266;7.402;2022-07-29T08:30:51;3.50;;;2.10;;
43146;SDS011;28752;48.266;7.402;2022-07-29T08:33:17;5.72;;;2.50;;
43146;SDS011;28752;48.266;7.402;2022-07-29T08:35:43;3.58;;;2.00;;
43146;SDS011;28752;48.266;7.402;2022-07-29T08:38:08;4.00;;;2.20;;
43146;SDS011;28752;48.266;7.402;2022-07-29T08:40:35;4.43;;;2.10;;
43146;SDS011;28752;48.266;7.402;2022-07-29T08:43:04;3.40;;;2.00;;
43146;SDS011;28752;48.266;7.402;2022-07-29T08:45:35;4.18;;;2.25;;
43146;SDS011;28752;48.266;7.402;2022-07-29T08:48:11;3.80;;;1.95;;
43146;SDS011;28752;48.266;7.402;2022-07-29T08:50:38;3.95;;;1.83;;
43146;SDS011;28752;48.266;7.402;2022-07-29T08:53:07;3.90;;;2.08;;
43146;SDS011;28752;48.266;7.402;2022-07-29T08:55:36;3.75;;;2.13;;
43146;SDS011;28752;48.266;7.402;2022-07-29T08:58:09;3.85;;;2.17;;
43146;SDS011;28752;48.266;7.402;2022-07-29T09:00:36;5.63;;;2.65;;
43146;SDS011;28752;48.266;7.402;2022-07-29T09:03:06;3.65;;;2.13;;
43146;SDS011;28752;48.266;7.402;2022-07-29T09:05:34;5.10;;;2.05;;
43146;SDS011;28752;48.266;7.402;2022-07-29T09:08:00;4.30;;;2.00;;
43146;SDS011;28752;48.266;7.402;2022-07-29T09:10:26;5.75;;;2.35;;
43146;SDS011;28752;48.266;7.402;2022-07-29T09:12:54;5.85;;;2.50;;
43146;SDS011;28752;48.266;7.402;2022-07-29T09:15:19;6.45;;;2.75;;
43146;SDS011;28752;48.266;7.402;2022-07-29T09:17:46;4.05;;;2.20;;
43146;SDS011;28752;48.266;7.402;2022-07-29T09:20:22;4.18;;;2.20;;
43146;SDS011;28752;48.266;7.402;2022-07-29T09:22:48;4.50;;;2.22;;
43146;SDS011;28752;48.266;7.402;2022-07-29T09:28:13;4.38;;;2.60;;
43146;SDS011;28752;48.266;7.402;2022-07-29T09:30:52;3.20;;;1.92;;
43146;SDS011;28752;48.266;7.402;2022-07-29T09:33:20;4.43;;;2.20;;
43146;SDS011;28752;48.266;7.402;2022-07-29T09:35:57;3.33;;;2.00;;
43146;SDS011;28752;48.266;7.402;2022-07-29T09:38:24;4.80;;;2.10;;
43146;SDS011;28752;48.266;7.402;2022-07-29T09:40:56;4.22;;;2.10;;
43146;SDS011;28752;48.266;7.402;2022-07-29T09:43:23;4.20;;;2.20;;
43146;SDS011;28752;48.266;7.402;2022-07-29T09:45:49;3.78;;;1.95;;
43146;SDS011;28752;48.266;7.402;2022-07-29T09:48:15;3.90;;;2.13;;
43146;SDS011;28752;48.266;7.402;2022-07-29T09:50:45;4.68;;;2.10;;
43146;SDS011;28752;48.266;7.402;2022-07-29T09:53:29;4.15;;;2.03;;
43146;SDS011;28752;48.266;7.402;2022-07-29T09:55:56;4.30;;;2.00;;
43146;SDS011;28752;48.266;7.402;2022-07-29T09:58:22;4.32;;;2.10;;
43146;SDS011;28752;48.266;7.402;2022-07-29T10:00:48;3.60;;;2.10;;
43146;SDS011;28752;48.266;7.402;2022-07-29T10:03:14;4.95;;;2.25;;
43146;SDS011;28752;48.266;7.402;2022-07-29T10:05:40;3.40;;;1.85;;
43146;SDS011;28752;48.266;7.402;2022-07-29T10:08:07;3.25;;;1.80;;
43146;SDS011;28752;48.266;7.402;2022-07-29T10:10:34;3.20;;;1.73;;
43146;SDS011;28752;48.266;7.402;2022-07-29T10:13:02;4.15;;;2.20;;
43146;SDS011;28752;48.266;7.402;2022-07-29T10:15:31;4.35;;;1.83;;
43146;SDS011;28752;48.266;7.402;2022-07-29T10:17:58;4.43;;;2.00;;
43146;SDS011;28752;48.266;7.402;2022-07-29T10:20:24;4.15;;;1.85;;
43146;SDS011;28752;48.266;7.402;2022-07-29T10:22:51;4.38;;;2.00;;
43146;SDS011;28752;48.266;7.402;2022-07-29T10:25:17;4.72;;;2.10;;
43146;SDS011;28752;48.266;7.402;2022-07-29T10:27:44;4.55;;;1.80;;
43146;SDS011;28752;48.266;7.402;2022-07-29T10:30:10;3.17;;;1.80;;
43146;SDS011;28752;48.266;7.402;2022-07-29T10:32:43;3.40;;;1.98;;
43146;SDS011;28752;48.266;7.402;2022-07-29T10:38:15;3.63;;;1.75;;
43146;SDS011;28752;48.266;7.402;2022-07-29T10:43:53;2.63;;;1.58;;
43146;SDS011;28752;48.266;7.402;2022-07-29T10:46:21;3.72;;;1.92;;
43146;SDS011;28752;48.266;7.402;2022-07-29T10:54:18;4.25;;;1.90;;
43146;SDS011;28752;48.266;7.402;2022-07-29T10:59:41;2.85;;;1.70;;
43146;SDS011;28752;48.266;7.402;2022-07-29T11:07:27;4.07;;;2.40;;
43146;SDS011;28752;48.266;7.402;2022-07-29T11:18:16;3.10;;;1.77;;
43146;SDS011;28752;48.266;7.402;2022-07-29T11:22:56;3.40;;;1.85;;
43146;SDS011;28752;48.266;7.402;2022-07-29T11:25:22;4.70;;;2.00;;
43146;SDS011;28752;48.266;7.402;2022-07-29T11:27:48;3.92;;;1.60;;
43146;SDS011;28752;48.266;7.402;2022-07-29T11:30:14;3.60;;;2.00;;
43146;SDS011;28752;48.266;7.402;2022-07-29T11:32:40;7.03;;;2.22;;
43146;SDS011;28752;48.266;7.402;2022-07-29T11:35:11;5.35;;;2.10;;
43146;SDS011;28752;48.266;7.402;2022-07-29T11:37:37;3.88;;;2.00;;
43146;SDS011;28752;48.266;7.402;2022-07-29T11:42:41;3.63;;;1.83;;
43146;SDS011;28752;48.266;7.402;2022-07-29T11:45:19;3.47;;;1.90;;
43146;SDS011;28752;48.266;7.402;2022-07-29T11:50:12;2.83;;;1.50;;
43146;SDS011;28752;48.266;7.402;2022-07-29T11:52:39;4.18;;;1.50;;
43146;SDS011;28752;48.266;7.402;2022-07-29T11:55:15;4.57;;;1.70;;
43146;SDS011;28752;48.266;7.402;2022-07-29T11:57:49;4.10;;;1.92;;
43146;SDS011;28752;48.266;7.402;2022-07-29T12:03:01;3.05;;;1.77;;
43146;SDS011;28752;48.266;7.402;2022-07-29T12:06:02;4.55;;;1.90;;
43146;SDS011;28752;48.266;7.402;2022-07-29T12:08:21;4.28;;;2.20;;
43146;SDS011;28752;48.266;7.402;2022-07-29T12:10:48;3.95;;;2.10;;
43146;SDS011;28752;48.266;7.402;2022-07-29T12:13:16;3.58;;;1.92;;
43146;SDS011;28752;48.266;7.402;2022-07-29T12:15:51;3.50;;;1.65;;
43146;SDS011;28752;48.266;7.402;2022-07-29T12:18:21;4.80;;;1.80;;
43146;SDS011;28752;48.266;7.402;2022-07-29T12:20:47;2.85;;;1.70;;
43146;SDS011;28752;48.266;7.402;2022-07-29T12:23:13;3.15;;;1.60;;
43146;SDS011;28752;48.266;7.402;2022-07-29T12:25:41;4.53;;;1.92;;
43146;SDS011;28752;48.266;7.402;2022-07-29T12:28:09;4.40;;;1.95;;
43146;SDS011;28752;48.266;7.402;2022-07-29T12:30:44;4.05;;;1.90;;
43146;SDS011;28752;48.266;7.402;2022-07-29T12:33:15;3.80;;;2.20;;
43146;SDS011;28752;48.266;7.402;2022-07-29T12:35:44;2.83;;;1.60;;
43146;SDS011;28752;48.266;7.402;2022-07-29T12:38:12;3.20;;;1.70;;
43146;SDS011;28752;48.266;7.402;2022-07-29T12:40:38;2.90;;;1.42;;
43146;SDS011;28752;48.266;7.402;2022-07-29T12:45:41;3.53;;;1.80;;
43146;SDS011;28752;48.266;7.402;2022-07-29T12:48:15;2.73;;;1.57;;
43146;SDS011;28752;48.266;7.402;2022-07-29T12:50:54;4.10;;;1.85;;
43146;SDS011;28752;48.266;7.402;2022-07-29T12:53:22;3.15;;;2.03;;
43146;SDS011;28752;48.266;7.402;2022-07-29T12:55:48;2.92;;;1.70;;
43146;SDS011;28752;48.266;7.402;2022-07-29T12:58:26;2.50;;;1.60;;
43146;SDS011;28752;48.266;7.402;2022-07-29T13:03:26;2.78;;;1.60;;
43146;SDS011;28752;48.266;7.402;2022-07-29T13:05:51;4.00;;;1.90;;
43146;SDS011;28752;48.266;7.402;2022-07-29T13:08:17;3.50;;;1.85;;
43146;SDS011;28752;48.266;7.402;2022-07-29T13:10:45;3.08;;;1.90;;
43146;SDS011;28752;48.266;7.402;2022-07-29T13:13:12;2.90;;;1.67;;
43146;SDS011;28752;48.266;7.402;2022-07-29T13:15:40;3.80;;;2.20;;
43146;SDS011;28752;48.266;7.402;2022-07-29T13:21:09;4.47;;;2.08;;
43146;SDS011;28752;48.266;7.402;2022-07-29T13:23:36;4.40;;;1.50;;
43146;SDS011;28752;48.266;7.402;2022-07-29T13:26:06;3.47;;;1.63;;
43146;SDS011;28752;48.266;7.402;2022-07-29T13:28:36;3.03;;;1.60;;
43146;SDS011;28752;48.266;7.402;2022-07-29T13:31:01;3.42;;;1.83;;
43146;SDS011;28752;48.266;7.402;2022-07-29T13:33:27;2.67;;;1.60;;
43146;SDS011;28752;48.266;7.402;2022-07-29T13:35:52;3.33;;;1.65;;
43146;SDS011;28752;48.266;7.402;2022-07-29T13:38:18;4.22;;;1.98;;
43146;SDS011;28752;48.266;7.402;2022-07-29T13:40:43;3.03;;;1.60;;
43146;SDS011;28752;48.266;7.402;2022-07-29T13:43:09;2.90;;;1.40;;
43146;SDS011;28752;48.266;7.402;2022-07-29T13:45:35;3.13;;;1.83;;
43146;SDS011;28752;48.266;7.402;2022-07-29T13:48:01;4.18;;;1.70;;
43146;SDS011;28752;48.266;7.402;2022-07-29T13:50:26;2.92;;;1.40;;
43146;SDS011;28752;48.266;7.402;2022-07-29T13:52:52;2.65;;;1.38;;
43146;SDS011;28752;48.266;7.402;2022-07-29T13:55:17;3.22;;;1.60;;
43146;SDS011;28752;48.266;7.402;2022-07-29T13:57:43;2.33;;;1.40;;
43146;SDS011;28752;48.266;7.402;2022-07-29T14:00:09;2.47;;;1.35;;
43146;SDS011;28752;48.266;7.402;2022-07-29T14:02:35;3.08;;;1.50;;
43146;SDS011;28752;48.266;7.402;2022-07-29T14:05:01;3.05;;;1.60;;
43146;SDS011;28752;48.266;7.402;2022-07-29T14:07:26;3.00;;;1.67;;
43146;SDS011;28752;48.266;7.402;2022-07-29T14:09:51;3.25;;;1.90;;
43146;SDS011;28752;48.266;7.402;2022-07-29T14:12:17;2.90;;;1.55;;
43146;SDS011;28752;48.266;7.402;2022-07-29T14:14:42;3.50;;;1.90;;
43146;SDS011;28752;48.266;7.402;2022-07-29T14:17:08;2.58;;;1.55;;
43146;SDS011;28752;48.266;7.402;2022-07-29T14:19:34;3.72;;;1.60;;
43146;SDS011;28752;48.266;7.402;2022-07-29T14:22:04;2.70;;;1.60;;
43146;SDS011;28752;48.266;7.402;2022-07-29T14:24:30;3.78;;;1.83;;
43146;SDS011;28752;48.266;7.402;2022-07-29T14:26:56;4.10;;;2.10;;
43146;SDS011;28752;48.266;7.402;2022-07-29T14:29:21;4.68;;;1.77;;
43146;SDS011;28752;48.266;7.402;2022-07-29T14:31:47;3.00;;;1.58;;
43146;SDS011;28752;48.266;7.402;2022-07-29T14:34:13;3.85;;;2.10;;
43146;SDS011;28752;48.266;7.402;2022-07-29T14:36:40;5.35;;;2.47;;
43146;SDS011;28752;48.266;7.402;2022-07-29T14:39:06;5.53;;;2.28;;
43146;SDS011;28752;48.266;7.402;2022-07-29T14:41:31;5.70;;;1.60;;
43146;SDS011;28752;48.266;7.402;2022-07-29T14:43:59;3.83;;;2.00;;
43146;SDS011;28752;48.266;7.402;2022-07-29T14:46:27;3.20;;;1.75;;
43146;SDS011;28752;48.266;7.402;2022-07-29T14:48:53;2.53;;;1.40;;
43146;SDS011;28752;48.266;7.402;2022-07-29T14:51:19;2.85;;;1.60;;
43146;SDS011;28752;48.266;7.402;2022-07-29T14:53:45;4.68;;;1.80;;
43146;SDS011;28752;48.266;7.402;2022-07-29T14:56:10;3.33;;;1.77;;
43146;SDS011;28752;48.266;7.402;2022-07-29T14:58:36;4.35;;;1.67;;
43146;SDS011;28752;48.266;7.402;2022-07-29T15:01:01;5.32;;;2.35;;
43146;SDS011;28752;48.266;7.402;2022-07-29T15:03:26;2.55;;;1.48;;
43146;SDS011;28752;48.266;7.402;2022-07-29T15:05:53;3.72;;;1.70;;
43146;SDS011;28752;48.266;7.402;2022-07-29T15:08:18;3.28;;;1.48;;
43146;SDS011;28752;48.266;7.402;2022-07-29T15:10:44;7.13;;;1.52;;
43146;SDS011;28752;48.266;7.402;2022-07-29T15:13:10;4.10;;;1.77;;
43146;SDS011;28752;48.266;7.402;2022-07-29T15:15:35;3.03;;;1.27;;
43146;SDS011;28752;48.266;7.402;2022-07-29T15:18:00;4.88;;;1.85;;
43146;SDS011;28752;48.266;7.402;2022-07-29T15:20:26;2.72;;;1.45;;
43146;SDS011;28752;48.266;7.402;2022-07-29T15:22:52;7.85;;;1.73;;
43146;SDS011;28752;48.266;7.402;2022-07-29T15:25:20;3.15;;;1.30;;
43146;SDS011;28752;48.266;7.402;2022-07-29T15:27:46;2.40;;;1.35;;
43146;SDS011;28752;48.266;7.402;2022-07-29T15:30:11;3.05;;;1.00;;
43146;SDS011;28752;48.266;7.402;2022-07-29T15:32:37;12.60;;;4.32;;
43146;SDS011;28752;48.266;7.402;2022-07-29T15:35:02;8.27;;;2.00;;
43146;SDS011;28752;48.266;7.402;2022-07-29T15:37:28;2.65;;;1.20;;
43146;SDS011;28752;48.266;7.402;2022-07-29T15:39:54;10.00;;;1.63;;
43146;SDS011;28752;48.266;7.402;2022-07-29T15:42:19;1.98;;;1.13;;
43146;SDS011;28752;48.266;7.402;2022-07-29T15:49:36;4.63;;;1.60;;
43146;SDS011;28752;48.266;7.402;2022-07-29T15:52:06;3.10;;;1.20;;
43146;SDS011;28752;48.266;7.402;2022-07-29T15:54:33;2.03;;;1.15;;
43146;SDS011;28752;48.266;7.402;2022-07-29T15:57:01;1.80;;;1.00;;
43146;SDS011;28752;48.266;7.402;2022-07-29T15:59:27;2.72;;;1.55;;
43146;SDS011;28752;48.266;7.402;2022-07-29T16:04:19;2.05;;;1.10;;
43146;SDS011;28752;48.266;7.402;2022-07-29T16:06:44;2.08;;;1.05;;
43146;SDS011;28752;48.266;7.402;2022-07-29T16:09:11;2.13;;;1.05;;
43146;SDS011;28752;48.266;7.402;2022-07-29T16:14:02;2.63;;;0.90;;
43146;SDS011;28752;48.266;7.402;2022-07-29T16:18:54;1.98;;;1.00;;
43146;SDS011;28752;48.266;7.402;2022-07-29T16:21:19;2.40;;;1.20;;